createdAt,value
2023-01-20T00:00:09.101Z,99.13
2023-01-20T00:01:18.059Z,99.13
2023-01-20T00:02:22.103Z,99.21
2023-01-20T00:03:26.400Z,99.29
2023-01-20T00:04:30.033Z,99.44
2023-01-20T00:05:34.230Z,99.39
2023-01-20T00:06:37.895Z,99.49
2023-01-20T00:07:41.865Z,99.65
2023-01-20T00:08:51.283Z,99.51
2023-01-20T00:09:55.859Z,99.25
2023-01-20T00:11:05.627Z,99.40
2023-01-20T00:12:11.790Z,99.69
2023-01-20T00:13:15.911Z,99.66
2023-01-20T00:14:19.836Z,99.39
2023-01-20T00:15:23.335Z,99.37
2023-01-20T00:16:28.798Z,99.41
2023-01-20T00:17:32.568Z,99.02
2023-01-20T00:18:37.404Z,99.39
2023-01-20T00:19:41.169Z,98.79
2023-01-20T00:20:44.917Z,99.14
2023-01-20T00:21:48.768Z,98.87
2023-01-20T00:22:52.592Z,99.23
2023-01-20T00:23:56.923Z,99.21
2023-01-20T00:25:00.419Z,99.21
2023-01-20T00:26:10.824Z,98.90
2023-01-20T00:27:16.072Z,99.05
2023-01-20T00:28:19.614Z,99.23
2023-01-20T00:29:23.517Z,98.91
2023-01-20T00:30:27.423Z,98.89
2023-01-20T00:31:32.788Z,99.13
2023-01-20T00:32:45.088Z,99.13
2023-01-20T00:33:51.956Z,99.02
2023-01-20T00:34:56.047Z,99.44
2023-01-20T00:36:01.753Z,99.38
2023-01-20T00:37:08.147Z,99.76
2023-01-20T00:38:12.908Z,99.61
2023-01-20T00:39:16.677Z,99.75
2023-01-20T00:40:20.770Z,99.52
2023-01-20T00:41:24.770Z,99.60
2023-01-20T00:42:28.981Z,99.13
2023-01-20T00:43:33.067Z,99.24
2023-01-20T00:44:37.049Z,99.44
2023-01-20T00:45:41.683Z,99.67
2023-01-20T00:46:45.723Z,99.17
2023-01-20T00:47:49.395Z,99.22
2023-01-20T00:48:53.494Z,99.38
2023-01-20T00:49:57.383Z,99.26
2023-01-20T00:51:01.761Z,99.53
2023-01-20T00:52:05.632Z,99.61
2023-01-20T00:53:14.602Z,99.49
2023-01-20T00:54:18.398Z,99.50
2023-01-20T00:55:22.301Z,99.50
2023-01-20T00:56:26.373Z,99.51
2023-01-20T00:57:35.054Z,99.15
2023-01-20T00:58:38.789Z,99.40
2023-01-20T00:59:42.576Z,99.75
2023-01-20T01:00:57.924Z,99.50
2023-01-20T01:02:02.772Z,99.78
2023-01-20T01:03:09.745Z,99.46
2023-01-20T01:04:13.715Z,99.48
2023-01-20T01:05:17.593Z,99.00
2023-01-20T01:06:23.650Z,99.05
2023-01-20T01:07:27.523Z,99.18
2023-01-20T01:08:31.370Z,99.22
2023-01-20T01:09:35.245Z,99.59
2023-01-20T01:10:40.839Z,99.65
2023-01-20T01:11:44.504Z,99.59
2023-01-20T01:12:48.676Z,99.53
2023-01-20T01:13:52.532Z,99.83
2023-01-20T01:14:56.815Z,99.59
2023-01-20T01:16:01.162Z,99.65
2023-01-20T01:17:06.376Z,99.32
2023-01-20T01:18:14.483Z,99.48
2023-01-20T01:19:19.919Z,99.43
2023-01-20T01:20:25.081Z,99.24
2023-01-20T01:21:29.184Z,99.45
2023-01-20T01:22:34.062Z,99.61
2023-01-20T01:23:38.063Z,99.20
2023-01-20T01:24:46.887Z,98.80
2023-01-20T01:25:50.476Z,99.04
2023-01-20T01:26:54.632Z,99.10
2023-01-20T01:27:58.231Z,98.94
2023-01-20T01:29:01.857Z,99.11
2023-01-20T01:30:08.140Z,99.19
2023-01-20T01:31:12.003Z,98.96
2023-01-20T01:32:15.677Z,99.16
2023-01-20T01:33:19.493Z,99.13
2023-01-20T01:34:23.465Z,99.07
2023-01-20T01:35:27.631Z,98.84
2023-01-20T01:36:31.218Z,99.25
2023-01-20T01:37:35.027Z,98.98
2023-01-20T01:38:38.500Z,99.55
2023-01-20T01:39:42.271Z,99.41
2023-01-20T01:40:50.872Z,99.16
2023-01-20T01:41:54.518Z,98.90
2023-01-20T01:42:58.099Z,98.74
2023-01-20T01:44:12.410Z,98.66
2023-01-20T01:45:26.272Z,98.88
2023-01-20T01:46:30.432Z,98.69
2023-01-20T01:47:35.120Z,98.88
2023-01-20T01:48:46.117Z,98.70
2023-01-20T01:49:49.750Z,98.48
2023-01-20T01:51:06.191Z,98.50
2023-01-20T01:52:11.421Z,98.71
2023-01-20T01:53:16.178Z,98.60
2023-01-20T01:54:26.263Z,98.82
2023-01-20T01:55:41.566Z,98.61
2023-01-20T01:56:49.860Z,98.76
2023-01-20T01:57:56.661Z,98.99
2023-01-20T01:59:03.780Z,98.78
2023-01-20T02:00:13.321Z,98.66
2023-01-20T02:01:18.099Z,98.84
2023-01-20T02:02:21.971Z,98.78
2023-01-20T02:03:44.370Z,99.07
2023-01-20T02:04:48.786Z,99.09
2023-01-20T02:05:56.006Z,99.14
2023-01-20T02:07:08.646Z,99.38
2023-01-20T02:08:12.567Z,99.38
2023-01-20T02:09:17.615Z,99.39
2023-01-20T02:10:21.202Z,99.71
2023-01-20T02:11:25.178Z,99.82
2023-01-20T02:12:30.257Z,99.29
2023-01-20T02:13:35.177Z,99.35
2023-01-20T02:14:46.042Z,99.59
2023-01-20T02:16:21.297Z,99.64
2023-01-20T02:17:49.795Z,99.31
2023-01-20T02:19:24.508Z,99.27
2023-01-20T02:20:45.995Z,99.33
2023-01-20T02:22:15.272Z,99.00
2023-01-20T02:23:54.106Z,99.05
2023-01-20T02:25:45.048Z,99.27
2023-01-20T02:27:24.019Z,99.12
2023-01-20T02:29:01.724Z,99.31
2023-01-20T02:30:48.730Z,99.41
2023-01-20T02:32:19.918Z,99.63
2023-01-20T02:33:52.665Z,99.69
2023-01-20T02:35:09.316Z,99.67
2023-01-20T02:36:21.703Z,99.84
2023-01-20T02:37:57.151Z,99.96
2023-01-20T02:39:26.963Z,100.00
2023-01-20T02:40:57.467Z,100.00
2023-01-20T02:42:24.353Z,100.00
2023-01-20T02:43:46.997Z,100.00
2023-01-20T02:45:14.519Z,100.00
2023-01-20T02:46:39.915Z,99.75
2023-01-20T02:48:08.153Z,99.90
2023-01-20T02:49:32.301Z,100.00
2023-01-20T02:50:48.885Z,100.00
2023-01-20T02:52:26.209Z,99.70
2023-01-20T02:54:08.606Z,99.56
2023-01-20T02:55:28.754Z,99.88
2023-01-20T02:56:34.966Z,99.45
2023-01-20T02:57:46.689Z,99.59
2023-01-20T02:59:01.198Z,99.53
2023-01-20T03:00:26.074Z,99.32
2023-01-20T03:01:42.054Z,98.91
2023-01-20T03:02:50.752Z,98.75
2023-01-20T03:04:00.999Z,98.78
2023-01-20T03:05:19.842Z,98.96
2023-01-20T03:06:32.379Z,98.36
2023-01-20T03:07:40.475Z,97.89
2023-01-20T03:08:47.798Z,98.18
2023-01-20T03:09:56.245Z,97.92
2023-01-20T03:11:14.756Z,98.33
2023-01-20T03:12:27.872Z,98.13
2023-01-20T03:13:55.246Z,98.00
2023-01-20T03:14:59.548Z,98.08
2023-01-20T03:16:18.035Z,98.09
2023-01-20T03:17:23.088Z,97.74
2023-01-20T03:18:33.050Z,97.43
2023-01-20T03:19:37.235Z,97.01
2023-01-20T03:20:41.136Z,97.01
2023-01-20T03:21:45.287Z,97.09
2023-01-20T03:22:50.077Z,97.16
2023-01-20T03:24:00.472Z,97.13
2023-01-20T03:25:08.811Z,97.47
2023-01-20T03:26:18.189Z,97.04
2023-01-20T03:27:22.102Z,97.05
2023-01-20T03:28:26.308Z,97.18
2023-01-20T03:29:30.814Z,97.00
2023-01-20T03:30:34.752Z,97.37
2023-01-20T03:31:48.161Z,96.71
2023-01-20T03:32:53.633Z,96.48
2023-01-20T03:34:05.660Z,96.04
2023-01-20T03:35:16.721Z,96.57
2023-01-20T03:36:25.268Z,96.88
2023-01-20T03:37:29.083Z,96.53
2023-01-20T03:38:32.830Z,96.16
2023-01-20T03:39:40.159Z,96.36
2023-01-20T03:41:13.738Z,96.35
2023-01-20T03:42:31.813Z,96.25
2023-01-20T03:44:10.808Z,96.03
2023-01-20T03:45:46.977Z,96.14
2023-01-20T03:47:14.000Z,96.08
2023-01-20T03:48:47.702Z,96.29
2023-01-20T03:50:02.760Z,96.25
2023-01-20T03:51:33.675Z,96.32
2023-01-20T03:53:10.932Z,96.63
2023-01-20T03:54:26.336Z,96.38
2023-01-20T03:55:48.257Z,97.16
2023-01-20T03:57:08.327Z,96.86
2023-01-20T03:58:21.395Z,97.27
2023-01-20T03:59:26.366Z,96.94
2023-01-20T04:00:35.592Z,96.55
2023-01-20T04:01:44.707Z,96.87
2023-01-20T04:02:50.992Z,96.24
2023-01-20T04:03:57.890Z,96.39
2023-01-20T04:05:03.940Z,96.02
2023-01-20T04:06:15.316Z,96.24
2023-01-20T04:07:26.052Z,96.27
2023-01-20T04:08:35.632Z,95.97
2023-01-20T04:09:48.199Z,95.89
2023-01-20T04:10:55.312Z,96.05
2023-01-20T04:11:59.782Z,95.87
2023-01-20T04:13:03.374Z,95.89
2023-01-20T04:14:09.996Z,95.57
2023-01-20T04:15:14.500Z,95.67
2023-01-20T04:16:20.537Z,95.88
2023-01-20T04:17:33.978Z,95.85
2023-01-20T04:18:43.083Z,95.60
2023-01-20T04:19:47.081Z,94.70
2023-01-20T04:21:34.922Z,94.89
2023-01-20T04:22:57.565Z,95.46
2023-01-20T04:24:33.401Z,95.28
2023-01-20T04:25:37.614Z,95.10
2023-01-20T04:26:41.618Z,94.56
2023-01-20T04:27:45.527Z,94.83
2023-01-20T04:28:49.649Z,95.12
2023-01-20T04:29:53.386Z,95.03
2023-01-20T04:30:57.633Z,95.35
2023-01-20T04:32:03.623Z,95.00
2023-01-20T04:33:07.657Z,94.99
2023-01-20T04:34:15.766Z,94.52
2023-01-20T04:35:20.637Z,94.06
2023-01-20T04:36:24.386Z,94.16
2023-01-20T04:37:29.617Z,94.28
2023-01-20T04:38:33.664Z,94.23
2023-01-20T04:39:37.561Z,94.23
2023-01-20T04:40:43.224Z,94.39
2023-01-20T04:41:48.625Z,94.16
2023-01-20T04:42:52.282Z,93.74
2023-01-20T04:43:56.060Z,93.95
2023-01-20T04:45:00.125Z,93.82
2023-01-20T04:46:04.398Z,93.88
2023-01-20T04:47:13.910Z,93.27
2023-01-20T04:48:17.689Z,93.50
2023-01-20T04:49:22.007Z,93.12
2023-01-20T04:50:26.162Z,93.29
2023-01-20T04:51:29.875Z,93.42
2023-01-20T04:52:34.036Z,93.45
2023-01-20T04:53:38.220Z,93.11
2023-01-20T04:54:42.121Z,92.58
2023-01-20T04:55:46.625Z,93.05
2023-01-20T04:56:50.775Z,92.43
2023-01-20T04:57:54.919Z,93.07
2023-01-20T04:58:59.583Z,93.02
2023-01-20T05:00:06.162Z,93.62
2023-01-20T05:01:11.444Z,93.34
2023-01-20T05:02:15.451Z,93.33
2023-01-20T05:03:20.144Z,93.21
2023-01-20T05:04:23.886Z,92.91
2023-01-20T05:05:30.211Z,93.51
2023-01-20T05:06:33.863Z,93.35
2023-01-20T05:07:37.623Z,93.23
2023-01-20T05:08:41.557Z,93.45
2023-01-20T05:09:45.625Z,93.61
2023-01-20T05:10:49.846Z,93.84
2023-01-20T05:11:53.365Z,93.38
2023-01-20T05:12:56.963Z,93.29
2023-01-20T05:14:01.067Z,92.55
2023-01-20T05:15:06.073Z,92.93
2023-01-20T05:16:11.620Z,92.61
2023-01-20T05:17:15.312Z,93.00
2023-01-20T05:18:19.169Z,93.33
2023-01-20T05:19:22.836Z,93.00
2023-01-20T05:20:26.601Z,93.10
2023-01-20T05:21:31.001Z,92.68
2023-01-20T05:22:34.809Z,92.91
2023-01-20T05:23:38.916Z,93.03
2023-01-20T05:24:43.129Z,92.95
2023-01-20T05:25:54.621Z,93.48
2023-01-20T05:27:01.890Z,93.67
2023-01-20T05:28:07.170Z,93.59
2023-01-20T05:29:15.099Z,93.61
2023-01-20T05:30:19.029Z,93.36
2023-01-20T05:31:22.707Z,93.13
2023-01-20T05:32:26.380Z,93.13
2023-01-20T05:33:30.026Z,93.16
2023-01-20T05:34:33.667Z,93.07
2023-01-20T05:35:40.416Z,92.97
2023-01-20T05:36:44.253Z,92.93
2023-01-20T05:37:48.150Z,92.76
2023-01-20T05:38:51.712Z,92.39
2023-01-20T05:39:55.361Z,92.25
2023-01-20T05:41:04.513Z,92.00
2023-01-20T05:42:10.701Z,92.47
2023-01-20T05:43:14.988Z,92.42
2023-01-20T05:44:18.573Z,92.83
2023-01-20T05:45:22.590Z,92.58
2023-01-20T05:46:27.023Z,92.57
2023-01-20T05:47:31.507Z,92.60
2023-01-20T05:48:35.023Z,92.49
2023-01-20T05:49:38.685Z,92.69
2023-01-20T05:50:43.401Z,92.22
2023-01-20T05:51:47.077Z,92.38
2023-01-20T05:52:51.544Z,92.34
2023-01-20T05:53:55.312Z,92.18
2023-01-20T05:54:59.096Z,92.07
2023-01-20T05:56:07.015Z,92.40
2023-01-20T05:57:14.050Z,92.28
2023-01-20T05:58:18.202Z,92.67
2023-01-20T05:59:23.426Z,92.99
2023-01-20T06:00:27.434Z,92.60
2023-01-20T06:01:30.987Z,92.89
2023-01-20T06:02:34.798Z,92.67
2023-01-20T06:03:39.816Z,92.62
2023-01-20T06:04:43.687Z,92.60
2023-01-20T06:05:49.601Z,92.87
2023-01-20T06:06:53.531Z,92.91
2023-01-20T06:07:57.902Z,92.69
2023-01-20T06:09:01.635Z,92.86
2023-01-20T06:10:06.145Z,92.57
2023-01-20T06:11:11.197Z,92.58
2023-01-20T06:12:15.434Z,92.92
2023-01-20T06:13:19.383Z,92.74
2023-01-20T06:14:23.065Z,92.55
2023-01-20T06:15:26.722Z,92.95
2023-01-20T06:16:30.354Z,92.81
2023-01-20T06:17:34.248Z,93.07
2023-01-20T06:18:38.213Z,93.21
2023-01-20T06:19:41.842Z,93.37
2023-01-20T06:20:45.956Z,92.79
2023-01-20T06:21:49.640Z,93.15
2023-01-20T06:22:56.580Z,92.77
2023-01-20T06:24:00.211Z,93.21
2023-01-20T06:25:04.719Z,93.20
2023-01-20T06:26:14.057Z,93.42
2023-01-20T06:27:17.763Z,93.46
2023-01-20T06:28:21.290Z,93.54
2023-01-20T06:29:25.049Z,93.49
2023-01-20T06:30:32.643Z,93.78
2023-01-20T06:31:37.712Z,93.53
2023-01-20T06:32:41.357Z,93.75
2023-01-20T06:33:45.331Z,93.54
2023-01-20T06:34:48.941Z,93.45
2023-01-20T06:35:57.340Z,93.63
2023-01-20T06:37:02.316Z,93.52
2023-01-20T06:38:05.997Z,93.66
2023-01-20T06:39:11.185Z,93.56
2023-01-20T06:40:16.289Z,93.42
2023-01-20T06:41:22.089Z,93.34
2023-01-20T06:42:26.095Z,93.48
2023-01-20T06:43:31.837Z,93.49
2023-01-20T06:44:35.946Z,93.53
2023-01-20T06:45:43.934Z,93.17
2023-01-20T06:46:48.463Z,93.48
2023-01-20T06:47:52.030Z,93.73
2023-01-20T06:49:00.652Z,93.78
2023-01-20T06:50:05.088Z,93.61
2023-01-20T06:51:23.703Z,94.01
2023-01-20T06:52:28.013Z,93.99
2023-01-20T06:53:31.719Z,93.73
2023-01-20T06:54:36.013Z,93.25
2023-01-20T06:55:39.766Z,93.47
2023-01-20T06:56:44.009Z,93.36
2023-01-20T06:57:47.667Z,92.84
2023-01-20T06:58:52.170Z,93.10
2023-01-20T06:59:56.278Z,92.36
2023-01-20T07:01:10.814Z,92.37
2023-01-20T07:02:15.115Z,92.12
2023-01-20T07:03:19.624Z,91.87
2023-01-20T07:04:23.191Z,92.18
2023-01-20T07:05:27.050Z,92.03
2023-01-20T07:06:38.979Z,92.24
2023-01-20T07:07:46.479Z,92.38
2023-01-20T07:08:50.845Z,92.15
2023-01-20T07:09:57.191Z,92.42
2023-01-20T07:11:01.357Z,92.75
2023-01-20T07:12:11.232Z,92.93
2023-01-20T07:13:15.559Z,92.84
2023-01-20T07:14:19.433Z,93.12
2023-01-20T07:15:23.208Z,93.24
2023-01-20T07:16:27.242Z,93.53
2023-01-20T07:17:30.991Z,93.31
2023-01-20T07:18:35.195Z,93.19
2023-01-20T07:19:38.951Z,92.97
2023-01-20T07:20:43.910Z,93.08
2023-01-20T07:21:47.566Z,93.03
2023-01-20T07:22:51.151Z,93.06
2023-01-20T07:23:55.256Z,93.06
2023-01-20T07:24:59.247Z,92.53
2023-01-20T07:26:16.546Z,91.80
2023-01-20T07:27:20.559Z,91.33
2023-01-20T07:28:24.208Z,91.63
2023-01-20T07:29:28.500Z,91.31
2023-01-20T07:30:33.267Z,90.80
2023-01-20T07:31:37.618Z,91.00
2023-01-20T07:32:44.327Z,90.92
2023-01-20T07:33:48.757Z,91.15
2023-01-20T07:34:52.351Z,90.88
2023-01-20T07:35:56.017Z,90.86
2023-01-20T07:37:14.833Z,90.71
2023-01-20T07:38:19.347Z,91.20
2023-01-20T07:39:23.053Z,91.47
2023-01-20T07:40:27.250Z,91.71
2023-01-20T07:41:31.164Z,91.85
2023-01-20T07:42:38.311Z,91.85
2023-01-20T07:43:46.519Z,91.84
2023-01-20T07:44:50.225Z,91.71
2023-01-20T07:46:02.492Z,91.88
2023-01-20T07:47:08.524Z,91.83
2023-01-20T07:48:12.787Z,91.81
2023-01-20T07:49:16.374Z,91.89
2023-01-20T07:50:19.940Z,91.62
2023-01-20T07:51:23.531Z,92.01
2023-01-20T07:52:27.560Z,91.61
2023-01-20T07:53:34.470Z,92.13
2023-01-20T07:54:38.390Z,92.00
2023-01-20T07:55:45.346Z,91.77
2023-01-20T07:56:49.117Z,91.82
2023-01-20T07:57:53.328Z,92.00
2023-01-20T07:58:57.719Z,92.05
2023-01-20T08:00:05.693Z,92.07
2023-01-20T08:01:15.618Z,91.92
2023-01-20T08:02:20.042Z,91.99
2023-01-20T08:03:27.451Z,91.89
2023-01-20T08:04:33.818Z,91.93
2023-01-20T08:05:37.619Z,92.13
2023-01-20T08:06:41.334Z,91.79
2023-01-20T08:07:45.396Z,92.19
2023-01-20T08:08:49.849Z,92.11
2023-01-20T08:09:53.848Z,92.00
2023-01-20T08:10:58.650Z,91.74
2023-01-20T08:12:02.489Z,92.21
2023-01-20T08:13:06.731Z,92.25
2023-01-20T08:14:12.268Z,92.37
2023-01-20T08:15:16.771Z,92.18
2023-01-20T08:16:21.163Z,92.20
2023-01-20T08:17:25.411Z,92.13
2023-01-20T08:18:30.709Z,92.28
2023-01-20T08:19:34.503Z,92.45
2023-01-20T08:20:44.829Z,92.35
2023-01-20T08:21:48.420Z,92.59
2023-01-20T08:22:52.629Z,92.39
2023-01-20T08:23:58.798Z,92.26
2023-01-20T08:25:02.940Z,91.99
2023-01-20T08:26:07.629Z,92.35
2023-01-20T08:27:14.344Z,92.14
2023-01-20T08:28:18.362Z,92.37
2023-01-20T08:29:22.099Z,92.65
2023-01-20T08:30:27.126Z,92.51
2023-01-20T08:31:31.187Z,92.44
2023-01-20T08:32:34.839Z,92.33
2023-01-20T08:33:39.694Z,92.63
2023-01-20T08:34:43.434Z,92.70
2023-01-20T08:35:48.069Z,92.54
2023-01-20T08:36:54.142Z,92.31
2023-01-20T08:37:57.640Z,92.67
2023-01-20T08:39:05.111Z,92.58
2023-01-20T08:40:11.372Z,92.28
2023-01-20T08:41:24.332Z,92.23
2023-01-20T08:42:28.532Z,92.48
2023-01-20T08:43:32.204Z,92.16
2023-01-20T08:44:35.763Z,92.61
2023-01-20T08:45:40.063Z,92.61
2023-01-20T08:46:45.409Z,92.74
2023-01-20T08:47:49.127Z,92.74
2023-01-20T08:48:54.473Z,92.59
2023-01-20T08:50:09.205Z,92.68
2023-01-20T08:51:17.843Z,92.94
2023-01-20T08:52:21.985Z,92.87
2023-01-20T08:53:26.353Z,92.86
2023-01-20T08:54:34.513Z,92.77
2023-01-20T08:55:38.250Z,93.05
2023-01-20T08:56:42.282Z,93.07
2023-01-20T08:57:46.694Z,93.12
2023-01-20T08:58:51.982Z,93.10
2023-01-20T08:59:56.025Z,93.13
2023-01-20T09:01:00.267Z,92.70
2023-01-20T09:02:04.512Z,92.53
2023-01-20T09:03:12.532Z,92.28
2023-01-20T09:04:19.370Z,92.27
2023-01-20T09:05:23.388Z,92.50
2023-01-20T09:06:27.508Z,92.51
2023-01-20T09:07:31.463Z,92.65
2023-01-20T09:08:37.491Z,92.71
2023-01-20T09:09:41.021Z,93.08
2023-01-20T09:10:46.056Z,93.41
2023-01-20T09:11:53.229Z,93.41
2023-01-20T09:12:56.895Z,93.15
2023-01-20T09:14:01.545Z,93.15
2023-01-20T09:15:11.228Z,92.72
2023-01-20T09:16:19.578Z,93.05
2023-01-20T09:17:23.425Z,93.02
2023-01-20T09:18:31.319Z,92.94
2023-01-20T09:19:35.800Z,92.97
2023-01-20T09:20:39.554Z,93.28
2023-01-20T09:21:44.864Z,93.22
2023-01-20T09:22:48.694Z,93.37
2023-01-20T09:23:52.776Z,93.37
2023-01-20T09:24:57.017Z,93.75
2023-01-20T09:26:05.229Z,93.53
2023-01-20T09:27:14.916Z,93.56
2023-01-20T09:28:18.461Z,93.87
2023-01-20T09:29:22.727Z,93.37
2023-01-20T09:30:26.443Z,93.61
2023-01-20T09:31:30.142Z,93.46
2023-01-20T09:32:33.967Z,93.66
2023-01-20T09:33:39.508Z,93.93
2023-01-20T09:34:46.193Z,93.60
2023-01-20T09:35:58.849Z,93.64
2023-01-20T09:37:22.583Z,94.03
2023-01-20T09:38:47.605Z,93.94
2023-01-20T09:40:09.940Z,93.99
2023-01-20T09:41:55.961Z,94.17
2023-01-20T09:43:54.600Z,94.31
2023-01-20T09:45:25.032Z,94.46
2023-01-20T09:47:14.657Z,94.29
2023-01-20T09:49:31.442Z,94.48
2023-01-20T09:51:05.641Z,94.85
2023-01-20T09:52:53.107Z,94.84
2023-01-20T09:54:14.016Z,95.01
2023-01-20T09:55:23.313Z,95.63
2023-01-20T09:56:29.804Z,95.50
2023-01-20T09:57:41.320Z,95.17
2023-01-20T09:58:57.431Z,95.23
2023-01-20T10:00:17.275Z,95.41
2023-01-20T10:01:46.314Z,95.28
2023-01-20T10:03:14.569Z,95.52
2023-01-20T10:04:52.037Z,95.27
2023-01-20T10:06:02.140Z,95.03
2023-01-20T10:07:34.940Z,95.39
2023-01-20T10:09:06.791Z,95.56
2023-01-20T10:10:25.084Z,95.75
2023-01-20T10:11:38.855Z,95.83
2023-01-20T10:12:57.028Z,95.86
2023-01-20T10:14:36.531Z,95.74
2023-01-20T10:15:49.100Z,95.60
2023-01-20T10:17:15.071Z,95.59
2023-01-20T10:18:39.692Z,95.39
2023-01-20T10:20:00.066Z,95.56
2023-01-20T10:21:26.911Z,95.70
2023-01-20T10:22:53.792Z,95.41
2023-01-20T10:24:09.101Z,95.81
2023-01-20T10:25:36.460Z,95.95
2023-01-20T10:26:55.350Z,95.73
2023-01-20T10:28:43.480Z,95.80
2023-01-20T10:30:07.557Z,95.42
2023-01-20T10:31:22.215Z,95.45
2023-01-20T10:32:44.839Z,95.65
2023-01-20T10:33:49.591Z,95.76
2023-01-20T10:34:57.361Z,96.11
2023-01-20T10:36:01.391Z,95.72
2023-01-20T10:37:23.783Z,95.84
2023-01-20T10:38:53.963Z,96.21
2023-01-20T10:40:37.273Z,96.15
2023-01-20T10:41:54.463Z,95.87
2023-01-20T10:43:04.568Z,95.87
2023-01-20T10:44:15.430Z,95.76
2023-01-20T10:45:44.254Z,95.63
2023-01-20T10:47:16.841Z,96.06
2023-01-20T10:49:00.738Z,95.99
2023-01-20T10:50:47.969Z,96.07
2023-01-20T10:52:10.007Z,96.19
2023-01-20T10:53:37.679Z,96.03
2023-01-20T10:55:34.305Z,95.84
2023-01-20T10:56:59.821Z,96.94
2023-01-20T10:58:41.807Z,97.03
2023-01-20T11:00:17.924Z,96.74
2023-01-20T11:01:22.104Z,97.41
2023-01-20T11:02:36.547Z,97.71
2023-01-20T11:03:44.368Z,97.87
2023-01-20T11:05:04.271Z,97.48
2023-01-20T11:06:25.471Z,97.56
2023-01-20T11:07:33.658Z,98.14
2023-01-20T11:08:37.763Z,98.42
2023-01-20T11:09:42.717Z,98.78
2023-01-20T11:10:51.269Z,99.15
2023-01-20T11:11:57.722Z,99.26
2023-01-20T11:13:02.680Z,98.85
2023-01-20T11:14:10.052Z,98.58
2023-01-20T11:15:38.226Z,98.21
2023-01-20T11:16:46.785Z,99.01
2023-01-20T11:18:30.261Z,99.06
2023-01-20T11:19:54.698Z,99.08
2023-01-20T11:21:14.102Z,99.06
2023-01-20T11:22:36.540Z,99.16
2023-01-20T11:23:52.840Z,99.45
2023-01-20T11:25:04.557Z,99.39
2023-01-20T11:26:31.635Z,99.35
2023-01-20T11:27:46.398Z,99.42
2023-01-20T11:29:01.710Z,99.17
2023-01-20T11:30:25.787Z,98.95
2023-01-20T11:31:48.841Z,98.18
2023-01-20T11:33:24.307Z,99.16
2023-01-20T11:34:37.284Z,98.88
2023-01-20T11:35:41.135Z,99.06
2023-01-20T11:36:46.196Z,98.73
2023-01-20T11:37:49.998Z,98.77
2023-01-20T11:38:56.794Z,98.99
2023-01-20T11:40:16.377Z,99.27
2023-01-20T11:41:24.393Z,99.32
2023-01-20T11:42:43.174Z,99.37
2023-01-20T11:43:47.606Z,98.96
2023-01-20T11:45:15.331Z,99.59
2023-01-20T11:46:34.888Z,99.31
2023-01-20T11:47:38.715Z,99.03
2023-01-20T11:48:42.987Z,99.46
2023-01-20T11:49:46.727Z,99.97
2023-01-20T11:50:56.331Z,100.00
2023-01-20T11:52:01.729Z,100.00
2023-01-20T11:53:27.920Z,100.00
2023-01-20T11:54:33.226Z,100.00
2023-01-20T11:55:49.613Z,100.00
2023-01-20T11:57:14.081Z,100.00
2023-01-20T11:58:51.586Z,100.00
2023-01-20T11:59:55.450Z,100.00
2023-01-20T12:01:04.527Z,100.00
2023-01-20T12:02:10.144Z,100.00
2023-01-20T12:03:25.379Z,100.00
2023-01-20T12:04:58.426Z,100.00
2023-01-20T12:06:19.104Z,100.00
2023-01-20T12:07:57.481Z,100.00
2023-01-20T12:09:16.067Z,100.00
2023-01-20T12:10:27.327Z,100.00
2023-01-20T12:11:36.235Z,100.00
2023-01-20T12:13:27.895Z,100.00
2023-01-20T12:14:59.649Z,100.00
2023-01-20T12:16:12.395Z,100.00
2023-01-20T12:17:26.158Z,100.00
2023-01-20T12:19:05.104Z,100.00
2023-01-20T12:20:17.381Z,100.00
2023-01-20T12:21:46.179Z,100.00
2023-01-20T12:23:39.344Z,100.00
2023-01-20T12:25:08.669Z,100.00
2023-01-20T12:26:16.798Z,100.00
2023-01-20T12:27:28.135Z,100.00
2023-01-20T12:28:51.743Z,100.00
2023-01-20T12:30:06.253Z,100.00
2023-01-20T12:31:20.162Z,100.00
2023-01-20T12:32:25.132Z,100.00
2023-01-20T12:33:44.165Z,100.00
2023-01-20T12:34:47.748Z,100.00
2023-01-20T12:36:28.783Z,100.00
2023-01-20T12:37:52.659Z,100.00
2023-01-20T12:39:10.217Z,100.00
2023-01-20T12:40:47.957Z,100.00
2023-01-20T12:42:37.077Z,100.00
2023-01-20T12:44:31.757Z,100.00
2023-01-20T12:45:51.490Z,100.00
2023-01-20T12:47:18.660Z,100.00
2023-01-20T12:48:41.086Z,100.00
2023-01-20T12:50:15.482Z,100.00
2023-01-20T12:51:43.414Z,100.00
2023-01-20T12:53:27.640Z,100.00
2023-01-20T12:54:47.720Z,100.00
2023-01-20T12:56:19.129Z,100.00
2023-01-20T12:57:53.153Z,100.00
2023-01-20T12:59:17.258Z,100.00
2023-01-20T13:01:15.124Z,100.00
2023-01-20T13:03:09.445Z,100.00
2023-01-20T13:04:55.947Z,100.00
2023-01-20T13:06:28.517Z,100.00
2023-01-20T13:08:12.621Z,100.00
2023-01-20T13:09:53.191Z,100.00
2023-01-20T13:11:24.002Z,100.00
2023-01-20T13:13:07.213Z,100.00
2023-01-20T13:14:25.885Z,100.00
2023-01-20T13:15:45.815Z,100.00
2023-01-20T13:17:16.843Z,100.00
2023-01-20T13:18:53.621Z,100.00
2023-01-20T13:20:01.699Z,100.00
2023-01-20T13:21:05.700Z,100.00
2023-01-20T13:22:25.706Z,100.00
2023-01-20T13:23:35.063Z,100.00
2023-01-20T13:24:43.589Z,100.00
2023-01-20T13:25:48.938Z,100.00
2023-01-20T13:26:53.387Z,100.00
2023-01-20T13:27:58.082Z,100.00
2023-01-20T13:29:02.518Z,100.00
2023-01-20T13:30:28.747Z,100.00
2023-01-20T13:31:39.041Z,100.00
2023-01-20T13:32:49.675Z,100.00
2023-01-20T13:33:53.628Z,100.00
2023-01-20T13:35:01.886Z,100.00
2023-01-20T13:36:25.369Z,100.00
2023-01-20T13:37:38.691Z,100.00
2023-01-20T13:38:43.547Z,100.00
2023-01-20T13:39:48.499Z,100.00
2023-01-20T13:40:55.842Z,100.00
2023-01-20T13:42:04.082Z,100.00
2023-01-20T13:43:43.232Z,100.00
2023-01-20T13:45:13.429Z,100.00
2023-01-20T13:46:17.739Z,100.00
2023-01-20T13:48:01.394Z,100.00
2023-01-20T13:49:24.613Z,100.00
2023-01-20T13:51:26.646Z,100.00
2023-01-20T13:52:50.821Z,100.00
2023-01-20T13:53:54.540Z,100.00
2023-01-20T13:54:58.258Z,100.00
2023-01-20T13:56:13.363Z,100.00
2023-01-20T13:57:29.152Z,100.00
2023-01-20T13:58:35.007Z,100.00
2023-01-20T13:59:38.466Z,100.00
2023-01-20T14:00:42.784Z,100.00
2023-01-20T14:01:46.629Z,100.00
2023-01-20T14:02:51.077Z,100.00
2023-01-20T14:04:22.261Z,100.00
2023-01-20T14:05:31.452Z,100.00
2023-01-20T14:06:36.295Z,100.00
2023-01-20T14:07:44.800Z,100.00
2023-01-20T14:08:51.198Z,100.00
2023-01-20T14:10:01.348Z,100.00
2023-01-20T14:11:24.398Z,100.00
2023-01-20T14:12:28.932Z,100.00
2023-01-20T14:13:33.213Z,100.00
2023-01-20T14:14:44.250Z,100.00
2023-01-20T14:15:56.427Z,100.00
2023-01-20T14:17:03.364Z,100.00
2023-01-20T14:18:17.628Z,100.00
2023-01-20T14:19:37.266Z,100.00
2023-01-20T14:20:41.345Z,100.00
2023-01-20T14:21:45.441Z,100.00
2023-01-20T14:22:50.115Z,100.00
2023-01-20T14:23:54.205Z,100.00
2023-01-20T14:25:00.965Z,100.00
2023-01-20T14:26:11.204Z,100.00
2023-01-20T14:27:28.232Z,100.00
2023-01-20T14:28:32.857Z,100.00
2023-01-20T14:29:36.342Z,100.00
2023-01-20T14:30:40.199Z,100.00
2023-01-20T14:31:45.968Z,100.00
2023-01-20T14:32:52.074Z,100.00
2023-01-20T14:34:32.291Z,100.00
2023-01-20T14:35:36.307Z,100.00
2023-01-20T14:36:40.584Z,100.00
2023-01-20T14:37:50.419Z,100.00
2023-01-20T14:38:58.683Z,100.00
2023-01-20T14:40:11.591Z,100.00
2023-01-20T14:41:47.999Z,100.00
2023-01-20T14:43:08.108Z,100.00
2023-01-20T14:44:27.176Z,100.00
2023-01-20T14:45:33.560Z,100.00
2023-01-20T14:46:39.933Z,100.00
2023-01-20T14:47:44.145Z,100.00
2023-01-20T14:48:48.756Z,100.00
2023-01-20T14:49:54.450Z,100.00
2023-01-20T14:50:58.249Z,100.00
2023-01-20T14:52:04.558Z,100.00
2023-01-20T14:53:17.051Z,100.00
2023-01-20T14:54:31.659Z,100.00
2023-01-20T14:55:43.385Z,100.00
2023-01-20T14:56:51.648Z,100.00
2023-01-20T14:57:56.059Z,100.00
2023-01-20T14:59:00.035Z,100.00
2023-01-20T15:00:21.265Z,100.00
2023-01-20T15:01:27.778Z,100.00
2023-01-20T15:02:36.955Z,100.00
2023-01-20T15:03:40.797Z,100.00
2023-01-20T15:04:45.010Z,100.00
2023-01-20T15:06:00.803Z,100.00
2023-01-20T15:07:05.838Z,100.00
2023-01-20T15:08:37.504Z,100.00
2023-01-20T15:09:49.422Z,100.00
2023-01-20T15:11:21.660Z,100.00
2023-01-20T15:12:42.842Z,100.00
2023-01-20T15:14:00.548Z,100.00
2023-01-20T15:15:28.417Z,100.00